Time;durP1;ratioP1;P1;durP2;ratioP2;P2;SDS_P1;SDS_P2;PMS_P1;PMS_P2;Temp;Humidity;BMP_temperature;BMP_pressure;BME280_temperature;BME280_humidity;BME280_pressure;Samples;Min_cycle;Max_cycle;Signal;HPM_P1;HPM_P2
2023/01/25 00:02:42;;;;;;;147.30;60.30;;;;;;;1.05;100.00;102278.79;130152;1301;22577;-87
2023/01/25 00:05:43;;;;;;;142.90;58.40;;;;;;;1.01;100.00;102278.95;130235;1295;22578;-84
2023/01/25 00:08:48;;;;;;;135.20;55.10;;;;;;;0.99;100.00;102272.39;130230;1301;22733;-86
2023/01/25 00:11:49;;;;;;;137.20;55.50;;;;;;;0.98;100.00;102269.46;130392;1294;24641;-84
2023/01/25 00:14:49;;;;;;;144.50;61.40;;;;;;;0.99;100.00;102267.50;130416;1299;24661;-84
2023/01/25 00:17:50;;;;;;;150.40;62.70;;;;;;;1.02;100.00;102267.39;130132;1298;24284;-84
2023/01/25 00:20:50;;;;;;;154.30;60.30;;;;;;;1.05;100.00;102264.35;130437;1299;22571;-85
2023/01/25 00:23:51;;;;;;;154.70;60.80;;;;;;;1.05;100.00;102263.65;130389;1299;24736;-84
2023/01/25 00:26:52;;;;;;;143.90;57.60;;;;;;;1.07;100.00;102265.66;130238;1299;25319;-85
2023/01/25 00:29:52;;;;;;;145.20;58.90;;;;;;;1.09;100.00;102261.59;130385;1292;22559;-85
2023/01/25 00:33:05;;;;;;;136.20;57.60;;;;;;;1.13;100.00;102259.53;130390;1298;22574;-85
2023/01/25 00:36:26;;;;;;;147.80;58.10;;;;;;;1.17;100.00;102252.94;130463;1297;24240;-87
2023/01/25 00:39:26;;;;;;;130.30;56.10;;;;;;;1.20;100.00;102249.36;130568;1298;23908;-85
2023/01/25 00:42:27;;;;;;;133.60;57.70;;;;;;;1.22;100.00;102244.77;130368;1298;23346;-84
2023/01/25 00:45:27;;;;;;;139.20;57.90;;;;;;;1.24;100.00;102243.46;130127;1298;22874;-84
2023/01/25 00:48:28;;;;;;;139.60;56.00;;;;;;;1.27;100.00;102248.23;130014;1301;22597;-82
2023/01/25 00:51:29;;;;;;;131.90;55.60;;;;;;;1.26;100.00;102253.30;130190;1304;22557;-84
2023/01/25 00:54:29;;;;;;;127.30;53.70;;;;;;;1.29;100.00;102252.52;130427;1295;22574;-85
2023/01/25 00:57:30;;;;;;;127.60;55.00;;;;;;;1.30;100.00;102246.72;130249;1297;22556;-85
2023/01/25 01:00:31;;;;;;;129.30;53.60;;;;;;;1.30;100.00;102241.33;130285;1295;22814;-86
2023/01/25 01:03:33;;;;;;;132.80;54.70;;;;;;;1.30;100.00;102232.77;130280;1304;24281;-86
2023/01/25 01:06:36;;;;;;;129.10;54.90;;;;;;;1.31;100.00;102231.14;130033;1289;25668;-84
2023/01/25 01:09:37;;;;;;;130.30;54.10;;;;;;;1.32;100.00;102222.23;130197;1298;27233;-85
2023/01/25 01:12:37;;;;;;;126.40;54.80;;;;;;;1.34;100.00;102211.52;130206;1295;23733;-84
2023/01/25 01:15:38;;;;;;;128.20;56.30;;;;;;;1.36;100.00;102206.41;130066;1293;23196;-83
2023/01/25 01:18:42;;;;;;;134.00;55.60;;;;;;;1.37;100.00;102208.80;130027;1296;25329;-85
2023/01/25 01:21:42;;;;;;;125.40;52.70;;;;;;;1.37;100.00;102205.32;130076;1293;23210;-85
2023/01/25 01:24:43;;;;;;;130.40;53.50;;;;;;;1.39;100.00;102199.69;130190;1302;22561;-87
2023/01/25 01:27:43;;;;;;;128.00;53.20;;;;;;;1.39;100.00;102199.17;129957;1299;25335;-85
2023/01/25 01:30:44;;;;;;;126.00;53.50;;;;;;;1.39;100.00;102197.77;130228;1292;22634;-86
2023/01/25 01:33:48;;;;;;;130.60;55.30;;;;;;;1.39;100.00;102196.69;130026;1304;25864;-83
2023/01/25 01:36:49;;;;;;;131.10;52.10;;;;;;;1.35;100.00;102202.77;130321;1302;23295;-84
2023/01/25 01:39:50;;;;;;;;;;;;;;;1.30;100.00;102193.02;130023;1292;24250;-86
2023/01/25 01:42:56;;;;;;;117.60;51.90;;;;;;;1.24;100.00;102194.80;130314;1299;24457;-84
2023/01/25 01:45:59;;;;;;;131.10;53.30;;;;;;;1.20;100.00;102187.62;130039;1301;23657;-83
2023/01/25 01:49:25;;;;;;;126.00;51.90;;;;;;;1.20;100.00;102181.19;130292;1299;22623;-84
2023/01/25 01:52:32;;;;;;;137.40;54.20;;;;;;;1.21;100.00;102180.09;130176;1299;22649;-84
2023/01/25 01:55:35;;;;;;;129.70;53.30;;;;;;;1.22;100.00;102179.36;130273;1300;22670;-84
2023/01/25 01:58:40;;;;;;;131.10;53.50;;;;;;;1.23;100.00;102172.88;130207;1299;25328;-84
2023/01/25 02:01:40;;;;;;;129.60;53.20;;;;;;;1.23;100.00;102176.51;130166;1301;24240;-85
2023/01/25 02:04:45;;;;;;;129.00;55.40;;;;;;;1.21;100.00;102178.02;130069;1301;22663;-82
2023/01/25 02:07:50;;;;;;;123.20;53.30;;;;;;;1.18;100.00;102176.36;130234;1292;22581;-85
2023/01/25 02:10:54;;;;;;;133.50;55.10;;;;;;;1.12;100.00;102177.45;130421;1298;22678;-87
2023/01/25 02:13:57;;;;;;;128.00;50.90;;;;;;;1.06;100.00;102178.55;129959;1294;22556;-83
2023/01/25 02:16:58;;;;;;;125.70;51.70;;;;;;;1.00;100.00;102182.59;130351;1298;22579;-83
2023/01/25 02:20:17;;;;;;;117.40;51.50;;;;;;;0.98;100.00;102180.41;130129;1292;22646;-85
2023/01/25 02:23:42;;;;;;;129.90;53.90;;;;;;;0.94;100.00;102180.89;130371;1298;24269;-86
2023/01/25 02:26:43;;;;;;;133.80;53.30;;;;;;;0.95;100.00;102179.82;130395;1292;22647;-84
2023/01/25 02:29:44;;;;;;;123.70;53.20;;;;;;;0.94;100.00;102177.23;130221;1292;22663;-85
2023/01/25 02:32:45;;;;;;;127.10;52.80;;;;;;;0.95;100.00;102171.44;130143;1299;22579;-84
2023/01/25 02:35:52;;;;;;;134.40;56.20;;;;;;;0.92;100.00;102173.63;130463;1299;22598;-84
2023/01/25 02:38:58;;;;;;;125.40;54.40;;;;;;;0.91;100.00;102173.84;130144;1288;24956;-86
2023/01/25 02:41:59;;;;;;;120.50;52.70;;;;;;;0.93;100.00;102170.49;130100;1299;22621;-85
2023/01/25 02:45:04;;;;;;;119.60;50.00;;;;;;;0.96;100.00;102173.69;130214;1298;22667;-83
2023/01/25 02:48:05;;;;;;;137.40;55.10;;;;;;;0.98;100.00;102170.63;130251;1292;24243;-83
2023/01/25 02:51:07;;;;;;;132.80;54.40;;;;;;;0.98;100.00;102167.52;130187;1292;22565;-86
2023/01/25 02:54:09;;;;;;;135.80;56.20;;;;;;;0.99;100.00;102157.35;130163;1295;22788;-82
2023/01/25 02:57:10;;;;;;;122.50;53.30;;;;;;;1.02;100.00;102161.78;130292;1298;24311;-86
2023/01/25 03:00:16;;;;;;;123.00;51.70;;;;;;;0.97;100.00;102164.75;130404;1292;24488;-82
2023/01/25 03:03:18;;;;;;;123.40;51.40;;;;;;;0.91;100.00;102167.41;130417;1295;22797;-86
2023/01/25 03:06:18;;;;;;;124.60;51.00;;;;;;;0.87;100.00;102162.33;130368;1301;22680;-85
2023/01/25 03:09:19;;;;;;;126.00;54.00;;;;;;;0.87;100.00;102156.73;130144;1299;22694;-85
2023/01/25 03:12:21;;;;;;;127.60;52.40;;;;;;;0.87;100.00;102158.46;130073;1291;22691;-86
2023/01/25 03:15:22;;;;;;;130.00;55.10;;;;;;;0.85;100.00;102155.23;130111;1293;23953;-85
2023/01/25 03:18:22;;;;;;;126.00;55.10;;;;;;;0.83;100.00;102150.09;130078;1301;22653;-82
2023/01/25 03:21:25;;;;;;;120.40;50.50;;;;;;;0.79;100.00;102148.48;129787;1304;22578;-84
2023/01/25 03:24:26;;;;;;;120.50;50.20;;;;;;;0.78;100.00;102147.14;129917;1299;24353;-84
2023/01/25 03:27:29;;;;;;;129.50;54.30;;;;;;;0.76;100.00;102140.23;129985;1306;25278;-82
2023/01/25 03:30:39;;;;;;;126.50;51.60;;;;;;;0.73;100.00;102139.11;130147;1292;22814;-82
2023/01/25 03:33:41;;;;;;;127.90;53.60;;;;;;;0.73;100.00;102136.86;130060;1299;25447;-85
2023/01/25 03:36:42;;;;;;;132.20;52.50;;;;;;;0.74;100.00;102134.38;130047;1299;25332;-83
2023/01/25 03:39:42;;;;;;;130.60;52.70;;;;;;;0.74;100.00;102129.83;130066;1299;22643;-87
2023/01/25 03:42:43;;;;;;;135.60;55.10;;;;;;;0.74;100.00;102127.77;130094;1301;22667;-86
2023/01/25 03:45:44;;;;;;;133.20;54.00;;;;;;;0.76;100.00;102123.17;130264;1299;22615;-83
2023/01/25 03:48:46;;;;;;;134.00;54.30;;;;;;;0.79;100.00;102120.27;130095;1301;22576;-83
2023/01/25 03:51:47;;;;;;;140.90;53.70;;;;;;;0.80;100.00;102122.12;129894;1299;22580;-86
2023/01/25 03:54:49;;;;;;;139.00;55.60;;;;;;;0.82;100.00;102123.12;130256;1299;22665;-81
2023/01/25 03:57:49;;;;;;;142.10;55.80;;;;;;;0.85;100.00;102119.17;130145;1299;25392;-82
2023/01/25 04:00:50;;;;;;;;;;;;;;;0.87;100.00;102120.16;130109;1295;22679;-85
2023/01/25 04:03:51;;;;;;;138.90;55.80;;;;;;;0.88;100.00;102119.77;130136;1291;24361;-84
2023/01/25 04:06:52;;;;;;;136.40;55.80;;;;;;;0.89;100.00;102115.38;130064;1300;22865;-83
2023/01/25 04:09:54;;;;;;;143.50;56.50;;;;;;;0.87;100.00;102109.17;130362;1298;22827;-85
2023/01/25 04:12:54;;;;;;;139.80;56.70;;;;;;;0.86;100.00;102106.23;130397;1294;22814;-87
2023/01/25 04:15:55;;;;;;;149.40;59.10;;;;;;;0.86;100.00;102104.84;130303;1296;26829;-85
2023/01/25 04:19:15;;;;;;;143.60;57.60;;;;;;;0.83;100.00;102100.41;130002;1292;22717;-84
2023/01/25 04:22:16;;;;;;;151.80;60.80;;;;;;;0.83;100.00;102100.63;130283;1299;24302;-84
2023/01/25 04:25:17;;;;;;;148.80;59.30;;;;;;;0.82;100.00;102097.16;130480;1297;22569;-84
2023/01/25 04:28:22;;;;;;;150.90;58.60;;;;;;;0.82;100.00;102094.52;130217;1300;22675;-84
2023/01/25 04:31:23;;;;;;;150.10;60.00;;;;;;;0.85;100.00;102094.95;130571;1297;22619;-83
2023/01/25 04:34:24;;;;;;;146.20;56.60;;;;;;;0.88;100.00;102090.31;130227;1298;22541;-86
2023/01/25 04:37:25;;;;;;;139.40;57.20;;;;;;;0.91;100.00;102090.90;130172;1299;25571;-84
2023/01/25 04:40:30;;;;;;;140.40;56.80;;;;;;;0.93;100.00;102089.63;130168;1294;22559;-85
2023/01/25 04:43:30;;;;;;;156.60;57.50;;;;;;;0.94;100.00;102092.35;130415;1298;23038;-84
2023/01/25 04:46:35;;;;;;;145.40;56.10;;;;;;;0.96;100.00;102089.52;130196;1298;22781;-85
2023/01/25 04:49:35;;;;;;;137.80;54.10;;;;;;;0.96;100.00;102085.32;130424;1298;25398;-84
2023/01/25 04:52:36;;;;;;;145.30;57.40;;;;;;;0.97;100.00;102084.44;130266;1298;22576;-84
2023/01/25 04:55:38;;;;;;;145.30;58.10;;;;;;;0.98;100.00;102080.39;129930;1298;24267;-82
2023/01/25 04:58:41;;;;;;;138.10;56.30;;;;;;;1.00;100.00;102079.96;130289;1292;22675;-85
2023/01/25 05:01:41;;;;;;;138.40;57.20;;;;;;;1.01;100.00;102080.24;130134;1297;25732;-84
2023/01/25 05:04:43;;;;;;;142.10;53.90;;;;;;;1.03;100.00;102078.08;130051;1292;22577;-85
2023/01/25 05:07:43;;;;;;;131.80;53.20;;;;;;;1.05;100.00;102070.69;130179;1298;24234;-85
2023/01/25 05:10:44;;;;;;;140.20;54.20;;;;;;;1.07;100.00;102068.52;130079;1299;24068;-85
2023/01/25 05:14:13;;;;;;;133.50;51.30;;;;;;;1.10;100.00;102066.84;130552;1299;22622;-85
2023/01/25 05:17:16;;;;;;;132.50;54.20;;;;;;;1.09;100.00;102063.21;130162;1302;22683;-84
2023/01/25 05:20:16;;;;;;;49.60;21.60;;;;;;;1.07;100.00;102060.68;130174;1295;23898;-82
2023/01/25 05:23:17;;;;;;;41.40;18.30;;;;;;;1.02;100.00;102060.18;130216;1298;24298;-85
2023/01/25 05:29:40;;;;;;;127.30;48.90;;;;;;;1.02;100.00;102053.18;130373;1293;119828;-87
2023/01/25 05:32:42;;;;;;;117.30;50.30;;;;;;;1.03;100.00;102051.23;130105;1298;22599;-83
2023/01/25 05:35:43;;;;;;;129.50;50.00;;;;;;;0.98;100.00;102050.23;131031;1292;22555;-86
2023/01/25 05:38:44;;;;;;;124.60;49.60;;;;;;;0.99;100.00;102049.15;130544;1299;22571;-85
2023/01/25 05:41:46;;;;;;;122.00;51.60;;;;;;;1.02;100.00;102047.27;130046;1294;25389;-84
2023/01/25 05:44:47;;;;;;;103.20;42.90;;;;;;;1.03;100.00;102050.19;130133;1301;22853;-84
2023/01/25 05:47:56;;;;;;;120.90;49.40;;;;;;;1.03;100.00;102052.30;130247;1295;22545;-85
2023/01/25 05:50:57;;;;;;;118.90;49.80;;;;;;;1.04;100.00;102047.02;130316;1299;22560;-82
2023/01/25 05:53:58;;;;;;;111.20;47.90;;;;;;;1.03;100.00;102047.93;130370;1298;22594;-84
2023/01/25 05:56:59;;;;;;;119.80;49.60;;;;;;;1.03;100.00;102043.23;130263;1299;23155;-85
2023/01/25 05:59:59;;;;;;;112.70;47.60;;;;;;;1.04;100.00;102039.53;130324;1283;22620;-82
2023/01/25 06:03:01;;;;;;;116.20;50.50;;;;;;;1.05;100.00;102042.13;130214;1300;24072;-81
2023/01/25 06:06:01;;;;;;;123.90;50.90;;;;;;;1.05;100.00;102039.17;130278;1299;22589;-82
2023/01/25 06:09:02;;;;;;;112.90;47.90;;;;;;;1.06;100.00;102038.73;130201;1292;22562;-82
2023/01/25 06:12:05;;;;;;;110.20;47.50;;;;;;;1.09;100.00;102037.95;130239;1300;24110;-82
2023/01/25 06:15:06;;;;;;;108.30;48.00;;;;;;;1.07;100.00;102036.96;130463;1291;22629;-82
2023/01/25 06:18:06;;;;;;;105.70;45.20;;;;;;;1.04;100.00;102040.24;130111;1299;22563;-81
2023/01/25 06:21:20;;;;;;;114.70;46.30;;;;;;;1.01;100.00;102034.73;130464;1292;22593;-81
2023/01/25 06:24:21;;;;;;;114.90;46.50;;;;;;;1.01;100.00;102030.40;130490;1288;22678;-82
2023/01/25 06:27:21;;;;;;;107.80;45.30;;;;;;;1.01;100.00;102035.11;130383;1292;22633;-82
2023/01/25 06:30:22;;;;;;;113.40;45.80;;;;;;;0.99;100.00;102029.11;130431;1292;22676;-82
2023/01/25 06:33:22;;;;;;;115.40;46.00;;;;;;;1.01;100.00;102030.57;130406;1298;25382;-82
2023/01/25 06:36:23;;;;;;;112.10;44.80;;;;;;;1.04;100.00;102032.91;130557;1298;22566;-81
2023/01/25 06:39:24;;;;;;;106.80;42.90;;;;;;;1.03;100.00;102031.20;130443;1292;24202;-82
2023/01/25 06:42:24;;;;;;;105.90;41.90;;;;;;;1.03;100.00;102035.37;130280;1289;22566;-83
2023/01/25 06:45:25;;;;;;;106.20;43.40;;;;;;;1.05;100.00;102030.25;130497;1291;25415;-83
2023/01/25 06:48:26;;;;;;;104.40;43.30;;;;;;;1.09;100.00;102026.80;130626;1292;22651;-83
2023/01/25 06:51:28;;;;;;;105.50;42.00;;;;;;;1.10;100.00;102017.87;130819;1298;22574;-83
2023/01/25 06:54:28;;;;;;;101.20;40.60;;;;;;;1.11;100.00;102012.05;130267;1292;25380;-81
2023/01/25 06:57:29;;;;;;;89.70;39.00;;;;;;;1.14;100.00;102008.31;130306;1292;22581;-84
2023/01/25 07:00:30;;;;;;;94.70;39.60;;;;;;;1.16;100.00;102004.71;130379;1291;25332;-82
2023/01/25 07:03:31;;;;;;;93.50;39.10;;;;;;;1.18;100.00;102004.80;130399;1291;22665;-81
2023/01/25 07:06:35;;;;;;;89.00;38.50;;;;;;;1.20;100.00;102008.39;130408;1299;22556;-80
2023/01/25 07:09:35;;;;;;;82.30;37.70;;;;;;;1.21;100.00;102005.04;130118;1301;24321;-82
2023/01/25 07:12:36;;;;;;;87.80;37.60;;;;;;;1.19;100.00;102004.95;130309;1301;22643;-84
2023/01/25 07:15:36;;;;;;;95.30;38.50;;;;;;;1.17;100.00;102003.83;130186;1292;25332;-82
2023/01/25 07:18:37;;;;;;;93.90;39.10;;;;;;;1.17;100.00;102002.23;130248;1295;22594;-80
2023/01/25 07:21:38;;;;;;;;;;;;;;;1.19;100.00;102003.58;130314;1301;22827;-80
2023/01/25 07:24:38;;;;;;;86.80;36.40;;;;;;;1.20;100.00;102000.19;130348;1291;26729;-82
2023/01/25 07:27:39;;;;;;;77.30;33.40;;;;;;;1.22;100.00;101997.89;130376;1298;22630;-81
2023/01/25 07:30:40;;;;;;;73.30;29.00;;;;;;;1.22;100.00;101997.68;130317;1299;22583;-80
2023/01/25 07:33:41;;;;;;;59.20;27.40;;;;;;;1.23;100.00;102000.26;130367;1300;22562;-82
2023/01/25 07:36:45;;;;;;;65.10;29.40;;;;;;;1.22;100.00;101994.02;130589;1292;22554;-81
2023/01/25 07:39:49;;;;;;;63.30;28.50;;;;;;;1.24;100.00;101993.27;130403;1297;25516;-81
2023/01/25 07:42:50;;;;;;;65.30;29.10;;;;;;;1.25;100.00;101990.07;130240;1293;22563;-81
2023/01/25 07:45:53;;;;;;;66.30;29.10;;;;;;;1.24;100.00;101989.05;130505;1298;22820;-80
2023/01/25 07:48:54;;;;;;;80.90;33.90;;;;;;;1.19;100.00;101985.28;130338;1299;25271;-81
2023/01/25 07:51:54;;;;;;;87.20;35.10;;;;;;;1.16;100.00;101990.60;130868;1291;25507;-81
2023/01/25 07:54:55;;;;;;;86.50;36.50;;;;;;;1.17;100.00;101986.71;130560;1293;25402;-81
2023/01/25 07:57:56;;;;;;;83.90;36.60;;;;;;;1.19;100.00;101982.29;130502;1292;22783;-81
2023/01/25 08:00:57;;;;;;;80.50;36.80;;;;;;;1.22;100.00;101979.41;130398;1292;23326;-83
2023/01/25 08:03:57;;;;;;;89.80;38.00;;;;;;;1.20;100.00;101977.02;130439;1292;22688;-81
2023/01/25 08:06:58;;;;;;;88.00;39.70;;;;;;;1.21;100.00;101978.92;130263;1290;25443;-83
2023/01/25 08:09:58;;;;;;;91.10;37.80;;;;;;;1.21;100.00;101973.67;130717;1292;25389;-82
2023/01/25 08:12:59;;;;;;;77.80;33.00;;;;;;;1.21;100.00;101967.56;130474;1292;24251;-83
2023/01/25 08:15:59;;;;;;;59.40;25.60;;;;;;;1.23;100.00;101966.45;130414;1295;22555;-81
2023/01/25 08:19:02;;;;;;;53.50;27.00;;;;;;;1.25;100.00;101968.78;130578;1295;24779;-80
2023/01/25 08:22:02;;;;;;;63.20;27.90;;;;;;;1.27;100.00;101971.18;130267;1292;25404;-82
2023/01/25 08:25:03;;;;;;;68.20;29.30;;;;;;;1.28;100.00;101966.23;130465;1290;24237;-83
2023/01/25 08:28:04;;;;;;;;;;;;;;;1.30;100.00;101963.36;130485;1292;24396;-80
2023/01/25 08:31:06;;;;;;;73.20;33.00;;;;;;;1.30;100.00;101959.89;130601;1298;24701;-82
2023/01/25 08:34:06;;;;;;;74.50;31.60;;;;;;;1.27;100.00;101954.59;130649;1292;24291;-81
2023/01/25 08:37:07;;;;;;;72.80;30.80;;;;;;;1.24;100.00;101951.78;130454;1291;22676;-80
2023/01/25 08:40:08;;;;;;;69.80;30.20;;;;;;;1.24;100.00;101948.44;130489;1295;22556;-79
2023/01/25 08:43:12;;;;;;;70.40;31.40;;;;;;;1.27;100.00;101942.58;130289;1291;22740;-80
2023/01/25 08:46:14;;;;;;;73.30;32.00;;;;;;;1.32;100.00;101937.48;130353;1293;25329;-82
2023/01/25 08:49:15;;;;;;;65.30;29.80;;;;;;;1.35;100.00;101935.44;130458;1291;23144;-80
2023/01/25 08:52:15;;;;;;;70.30;34.40;;;;;;;1.38;100.00;101928.73;130451;1293;22585;-81
2023/01/25 08:55:16;;;;;;;76.80;34.70;;;;;;;1.40;100.00;101927.40;130628;1292;25396;-84
2023/01/25 08:58:18;;;;;;;70.10;31.90;;;;;;;1.42;100.00;101928.73;130477;1298;25418;-80
2023/01/25 09:01:19;;;;;;;74.10;31.90;;;;;;;1.44;100.00;101919.38;130264;1291;25329;-80
2023/01/25 09:04:20;;;;;;;82.70;31.00;;;;;;;1.48;100.00;101920.79;130448;1298;25431;-82
2023/01/25 09:07:20;;;;;;;62.60;29.20;;;;;;;1.49;100.00;101918.27;130472;1299;25526;-79
2023/01/25 09:10:21;;;;;;;68.10;29.50;;;;;;;1.50;100.00;101917.42;130411;1293;23664;-78
2023/01/25 09:13:21;;;;;;;67.20;29.80;;;;;;;1.49;100.00;101910.27;130490;1298;22560;-80
2023/01/25 09:16:29;;;;;;;60.80;27.70;;;;;;;1.51;100.00;101909.83;130050;1291;23346;-80
2023/01/25 09:19:30;;;;;;;61.40;28.70;;;;;;;1.54;100.00;101911.11;130269;1292;22662;-80
2023/01/25 09:22:30;;;;;;;65.40;29.10;;;;;;;1.55;100.00;101908.27;130405;1291;24243;-81
2023/01/25 09:25:31;;;;;;;76.60;31.00;;;;;;;1.58;100.00;101904.67;130422;1293;24668;-80
2023/01/25 09:28:32;;;;;;;69.80;29.60;;;;;;;1.61;100.00;101907.69;130182;1291;24246;-81
2023/01/25 09:31:33;;;;;;;67.60;31.10;;;;;;;1.62;100.00;101907.25;130324;1293;24727;-80
2023/01/25 09:34:45;;;;;;;67.10;30.30;;;;;;;1.63;100.00;101904.47;130197;1292;22646;-80
2023/01/25 09:37:51;;;;;;;72.80;31.80;;;;;;;1.64;100.00;101903.00;130435;1292;25553;-82
2023/01/25 09:41:24;;;;;;;71.30;32.30;;;;;;;1.65;100.00;101899.14;130324;1292;25375;-82
2023/01/25 09:44:27;;;;;;;90.80;35.70;;;;;;;1.65;100.00;101894.09;130636;1295;22593;-83
2023/01/25 09:47:59;;;;;;;74.10;33.00;;;;;;;1.65;100.00;101897.56;130652;1298;22677;-83
2023/01/25 09:51:06;;;;;;;67.40;30.70;;;;;;;1.61;100.00;101896.50;130352;1291;23415;-81
2023/01/25 09:54:10;;;;;;;66.60;31.20;;;;;;;1.58;100.00;101891.42;130737;1292;22983;-84
2023/01/25 09:57:37;;;;;;;70.00;30.90;;;;;;;1.55;100.00;101880.72;130565;1294;22556;-81
2023/01/25 10:00:46;;;;;;;72.00;31.40;;;;;;;1.59;100.00;101874.46;130797;1297;22808;-83
2023/01/25 10:03:52;;;;;;;63.20;30.00;;;;;;;1.61;100.00;101864.77;130408;1298;22579;-84
2023/01/25 10:07:00;;;;;;;61.80;30.10;;;;;;;1.62;100.00;101860.00;130623;1292;25379;-83
2023/01/25 10:10:05;;;;;;;61.90;28.40;;;;;;;1.64;100.00;101855.92;130534;1297;22674;-78
2023/01/25 10:13:20;;;;;;;62.20;28.00;;;;;;;1.62;100.00;101853.56;130473;1298;22668;-79
2023/01/25 10:16:54;;;;;;;68.60;29.80;;;;;;;1.64;100.00;101852.95;130326;1295;22566;-79
2023/01/25 10:20:23;;;;;;;61.90;26.10;;;;;;;1.64;100.00;101852.06;130087;1298;24452;-78
2023/01/25 10:23:42;;;;;;;59.10;26.00;;;;;;;1.59;100.00;101848.61;130213;1298;22784;-80
2023/01/25 10:26:46;;;;;;;56.60;26.90;;;;;;;1.57;100.00;101848.00;130248;1292;23345;-79
2023/01/25 10:29:48;;;;;;;55.70;26.50;;;;;;;1.59;100.00;101845.30;130614;1298;22618;-79
2023/01/25 10:32:51;;;;;;;45.90;23.90;;;;;;;1.58;100.00;101845.86;130256;1291;22685;-79
2023/01/25 10:35:54;;;;;;;65.00;29.40;;;;;;;1.59;100.00;101841.30;130650;1298;22606;-78
2023/01/25 10:38:59;;;;;;;67.70;30.50;;;;;;;1.55;100.00;101838.30;130552;1292;26586;-79
2023/01/25 10:42:07;;;;;;;54.80;27.30;;;;;;;1.56;100.00;101844.58;130369;1291;22571;-78
2023/01/25 10:45:13;;;;;;;63.60;29.20;;;;;;;1.51;100.00;101841.11;130439;1301;22675;-80
2023/01/25 10:48:18;;;;;;;68.70;30.10;;;;;;;1.45;100.00;101839.80;130408;1300;24381;-79
2023/01/25 10:51:31;;;;;;;74.70;31.90;;;;;;;1.44;100.00;101834.45;130075;1298;23238;-78
2023/01/25 10:54:31;;;;;;;63.70;28.00;;;;;;;1.49;100.00;101827.27;130235;1298;25286;-79
2023/01/25 10:57:34;;;;;;;60.20;28.90;;;;;;;1.53;100.00;101819.05;130396;1298;22606;-81
2023/01/25 11:00:38;;;;;;;63.10;28.10;;;;;;;1.57;100.00;101811.40;130404;1295;22739;-81
2023/01/25 11:03:43;;;;;;;49.20;25.30;;;;;;;1.62;100.00;101805.05;130573;1295;22577;-81
2023/01/25 11:06:50;;;;;;;64.30;29.60;;;;;;;1.66;100.00;101803.84;130288;1293;25293;-80
2023/01/25 11:09:51;;;;;;;67.10;29.50;;;;;;;1.66;100.00;101792.49;130584;1297;22574;-82
2023/01/25 11:13:18;;;;;;;61.70;31.00;;;;;;;1.71;100.00;101790.88;130465;1282;24294;-81
2023/01/25 11:16:29;;;;;;;55.40;24.70;;;;;;;1.71;100.00;101788.23;130575;1295;22730;-82
2023/01/25 11:19:34;;;;;;;50.20;25.10;;;;;;;1.73;100.00;101777.71;130497;1292;22665;-82
2023/01/25 11:22:35;;;;;;;50.60;24.70;;;;;;;1.76;100.00;101767.77;130595;1295;22624;-81
2023/01/25 11:25:36;;;;;;;52.00;25.60;;;;;;;1.79;100.00;101758.59;130559;1292;22564;-80
2023/01/25 11:28:36;;;;;;;47.60;23.60;;;;;;;1.77;100.00;101752.73;130487;1292;22556;-80
2023/01/25 11:31:40;;;;;;;44.10;23.10;;;;;;;1.76;99.97;101748.23;130362;1293;24500;-80
2023/01/25 11:34:41;;;;;;;43.10;22.50;;;;;;;1.76;99.99;101742.83;130392;1295;22772;-79
2023/01/25 11:38:03;;;;;;;42.60;21.80;;;;;;;1.75;100.00;101737.81;130574;1292;22598;-81
2023/01/25 11:41:17;;;;;;;38.70;20.80;;;;;;;1.77;100.00;101733.01;130565;1291;22658;-79
2023/01/25 11:44:48;;;;;;;38.70;20.90;;;;;;;1.79;99.98;101723.86;130463;1298;22675;-80
2023/01/25 11:48:17;;;;;;;37.10;20.30;;;;;;;1.82;99.97;101719.88;130405;1292;25550;-81
2023/01/25 11:51:38;;;;;;;39.80;19.60;;;;;;;1.83;99.96;101704.83;130420;1292;25522;-81
2023/01/25 11:54:50;;;;;;;37.20;20.10;;;;;;;1.84;99.78;101701.63;130428;1298;24007;-80
2023/01/25 11:57:53;;;;;;;33.30;17.80;;;;;;;1.84;99.53;101701.28;130470;1292;22579;-81
2023/01/25 12:01:14;;;;;;;35.10;19.20;;;;;;;1.86;99.74;101696.85;130435;1292;22706;-82
2023/01/25 12:04:23;;;;;;;39.10;20.50;;;;;;;1.89;99.54;101694.98;130466;1294;22573;-82
2023/01/25 12:08:06;;;;;;;39.60;20.30;;;;;;;1.89;99.49;101693.41;130418;1298;24874;-82
2023/01/25 12:11:35;;;;;;;41.60;21.20;;;;;;;1.88;99.53;101688.73;130371;1294;22864;-86
2023/01/25 12:15:02;;;;;;;39.20;19.50;;;;;;;1.89;99.67;101681.01;130530;1291;24320;-83
2023/01/25 12:19:00;;;;;;;27.90;16.40;;;;;;;1.88;99.36;101675.48;130431;1295;22575;-82
2023/01/25 12:22:06;;;;;;;33.90;18.70;;;;;;;1.85;99.15;101670.73;129287;1301;22572;-81
2023/01/25 12:25:32;;;;;;;30.50;17.40;;;;;;;1.82;99.02;101665.09;129389;1303;22561;-83
2023/01/25 12:28:41;;;;;;;49.00;18.00;;;;;;;1.82;99.22;101658.98;130481;1292;23082;-80
2023/01/25 12:31:50;;;;;;;42.50;16.70;;;;;;;1.84;99.40;101651.39;130458;1292;25553;-80
2023/01/25 12:35:14;;;;;;;34.40;17.80;;;;;;;1.88;98.94;101643.71;130499;1295;22568;-83
2023/01/25 12:38:25;;;;;;;39.10;17.20;;;;;;;1.92;99.05;101630.41;130445;1299;22627;-81
2023/01/25 12:41:33;;;;;;;36.00;17.60;;;;;;;1.92;98.71;101630.60;130544;1292;25420;-79
2023/01/25 12:45:14;;;;;;;30.00;16.00;;;;;;;1.92;98.68;101627.97;130544;1292;24380;-77
2023/01/25 12:48:21;;;;;;;30.60;16.60;;;;;;;2.13;99.87;101623.59;130580;1292;22609;-79
2023/01/25 12:51:25;;;;;;;36.50;18.50;;;;;;;2.44;100.00;101616.84;130493;1292;25329;-80
2023/01/25 12:54:39;;;;;;;29.70;17.50;;;;;;;2.43;99.85;101614.61;130284;1291;22562;-80
2023/01/25 12:58:05;;;;;;;34.70;18.80;;;;;;;2.42;99.31;101615.71;130474;1292;22841;-81
2023/01/25 13:01:26;;;;;;;32.80;18.40;;;;;;;2.39;98.42;101611.00;130613;1294;25650;-81
2023/01/25 13:04:48;;;;;;;29.80;17.70;;;;;;;2.35;98.24;101607.36;130576;1292;22578;-84
2023/01/25 13:08:01;;;;;;;34.00;19.40;;;;;;;2.29;97.95;101603.29;130468;1296;24229;-83
2023/01/25 13:11:32;;;;;;;35.40;19.40;;;;;;;2.24;97.78;101598.10;130306;1294;24358;-82
2023/01/25 13:14:38;;;;;;;34.60;19.00;;;;;;;2.21;97.72;101595.45;130265;1299;22654;-81
2023/01/25 13:17:39;;;;;;;34.60;17.20;;;;;;;2.20;97.83;101595.35;130263;1292;25497;-81
2023/01/25 13:20:40;;;;;;;29.30;16.80;;;;;;;2.19;97.63;101587.02;130001;1299;25369;-82
2023/01/25 13:23:44;;;;;;;34.80;17.50;;;;;;;2.18;97.62;101582.66;130261;1291;22629;-82
2023/01/25 13:26:54;;;;;;;36.10;20.10;;;;;;;2.17;97.64;101582.72;130491;1301;22672;-82
2023/01/25 13:29:57;;;;;;;35.80;19.50;;;;;;;2.18;97.55;101584.44;130416;1298;22639;-82
2023/01/25 13:33:07;;;;;;;33.90;18.50;;;;;;;2.14;97.29;101582.21;130539;1295;23303;-82
2023/01/25 13:36:46;;;;;;;31.20;17.20;;;;;;;2.10;97.13;101578.90;130271;1298;23957;-82
2023/01/25 13:39:49;;;;;;;32.60;18.50;;;;;;;2.08;97.11;101572.21;129970;1292;22599;-82
2023/01/25 13:43:15;;;;;;;31.40;17.20;;;;;;;2.06;96.90;101570.92;130242;1288;22815;-82
2023/01/25 13:46:21;;;;;;;29.70;16.10;;;;;;;2.02;97.19;101571.27;129954;1292;25695;-83
2023/01/25 13:49:29;;;;;;;29.30;16.30;;;;;;;1.97;96.79;101571.17;130019;1292;23380;-81
2023/01/25 13:52:31;;;;;;;27.80;15.70;;;;;;;1.89;96.55;101570.00;130327;1292;25306;-80
2023/01/25 13:55:41;;;;;;;33.90;17.80;;;;;;;1.85;96.64;101567.58;130307;1294;22623;-84